createdAt,value
2022-08-17T00:00:49.312Z,0.00
2022-08-17T00:01:52.632Z,0.00
2022-08-17T00:02:36.875Z,0.00
2022-08-17T00:03:34.559Z,0.00
2022-08-17T00:04:34.565Z,0.00
2022-08-17T00:05:34.567Z,0.00
2022-08-17T00:06:34.568Z,0.00
2022-08-17T00:07:34.573Z,0.00
2022-08-17T00:08:34.570Z,0.00
2022-08-17T00:09:34.570Z,0.00
2022-08-17T00:10:34.576Z,0.00
2022-08-17T00:11:34.584Z,0.00
2022-08-17T00:12:41.694Z,0.00
2022-08-17T00:13:34.585Z,0.00
2022-08-17T00:14:34.588Z,0.00
2022-08-17T00:15:34.582Z,0.00
2022-08-17T00:16:55.360Z,0.00
2022-08-17T00:17:34.593Z,0.00
2022-08-17T00:19:01.685Z,0.00
2022-08-17T00:19:34.600Z,0.00
2022-08-17T00:20:35.037Z,0.00
2022-08-17T00:21:56.061Z,0.00
2022-08-17T00:22:36.741Z,0.00
2022-08-17T00:23:34.607Z,0.00
2022-08-17T00:24:34.614Z,0.00
2022-08-17T00:25:34.609Z,0.00
2022-08-17T00:26:44.700Z,0.00
2022-08-17T00:27:34.618Z,0.00
2022-08-17T00:28:34.619Z,0.00
2022-08-17T00:29:34.621Z,0.00
2022-08-17T00:30:51.468Z,0.00
2022-08-17T00:31:34.624Z,0.00
2022-08-17T00:33:14.246Z,0.00
2022-08-17T00:33:34.629Z,0.00
2022-08-17T00:34:34.630Z,0.00
2022-08-17T00:35:34.635Z,0.00
2022-08-17T00:36:34.635Z,0.00
2022-08-17T00:37:34.639Z,0.00
2022-08-17T00:38:34.640Z,0.00
2022-08-17T00:39:34.700Z,0.00
2022-08-17T00:40:39.872Z,0.00
2022-08-17T00:41:34.647Z,0.00
2022-08-17T00:42:34.649Z,0.00
2022-08-17T00:43:34.651Z,0.00
2022-08-17T00:44:34.652Z,0.00
2022-08-17T00:45:34.656Z,0.00
2022-08-17T00:46:34.659Z,0.00
2022-08-17T00:47:34.668Z,0.00
2022-08-17T00:48:34.661Z,0.00
2022-08-17T00:49:34.661Z,0.00
2022-08-17T00:50:34.664Z,0.00
2022-08-17T00:51:34.666Z,0.00
2022-08-17T00:52:34.673Z,0.00
2022-08-17T00:53:34.669Z,0.00
2022-08-17T00:54:41.661Z,0.00
2022-08-17T00:55:34.676Z,0.00
2022-08-17T00:56:34.679Z,0.00
2022-08-17T00:57:34.684Z,0.00
2022-08-17T00:58:36.529Z,0.00
2022-08-17T00:59:34.683Z,0.00
2022-08-17T01:00:34.694Z,0.00
2022-08-17T01:01:34.710Z,0.00
2022-08-17T01:02:41.465Z,0.00
2022-08-17T01:03:34.693Z,0.00
2022-08-17T01:04:34.698Z,0.00
2022-08-17T01:05:34.692Z,0.00
2022-08-17T01:06:34.703Z,0.00
2022-08-17T01:07:34.697Z,0.00
2022-08-17T01:08:34.704Z,0.00
2022-08-17T01:09:34.711Z,0.00
2022-08-17T01:10:57.358Z,0.00
2022-08-17T01:11:34.706Z,0.00
2022-08-17T01:12:34.711Z,0.00
2022-08-17T01:13:40.401Z,0.00
2022-08-17T01:14:34.721Z,0.00
2022-08-17T01:15:34.716Z,0.00
2022-08-17T01:16:34.720Z,0.00
2022-08-17T01:17:34.729Z,0.00
2022-08-17T01:18:34.725Z,0.00
2022-08-17T01:19:34.728Z,0.00
2022-08-17T01:20:47.926Z,0.00
2022-08-17T01:21:34.730Z,0.00
2022-08-17T01:22:34.731Z,0.00
2022-08-17T01:23:34.736Z,0.00
2022-08-17T01:24:34.736Z,0.00
2022-08-17T01:25:34.737Z,0.00
2022-08-17T01:26:34.745Z,0.00
2022-08-17T01:27:34.741Z,0.00
2022-08-17T01:28:54.066Z,0.00
2022-08-17T01:29:34.749Z,0.00
2022-08-17T01:30:56.979Z,0.00
2022-08-17T01:31:34.747Z,0.00
2022-08-17T01:32:34.752Z,0.00
2022-08-17T01:33:34.748Z,0.00
2022-08-17T01:34:42.408Z,0.00
2022-08-17T01:35:34.755Z,0.00
2022-08-17T01:36:34.757Z,0.00
2022-08-17T01:37:34.758Z,0.00
2022-08-17T01:38:34.768Z,0.00
2022-08-17T01:39:34.830Z,0.00
2022-08-17T01:40:34.770Z,0.00
2022-08-17T01:41:34.774Z,0.00
2022-08-17T01:42:34.772Z,0.00
2022-08-17T01:43:34.769Z,0.00
2022-08-17T01:44:34.777Z,0.00
2022-08-17T01:45:34.778Z,0.00
2022-08-17T01:46:34.789Z,0.00
2022-08-17T01:47:36.098Z,0.00
2022-08-17T01:48:34.783Z,0.00
2022-08-17T01:49:34.787Z,0.00
2022-08-17T01:50:34.792Z,0.00
2022-08-17T01:51:34.798Z,0.00
2022-08-17T01:52:34.794Z,0.00
2022-08-17T01:53:34.789Z,0.00
2022-08-17T01:54:34.795Z,0.00
2022-08-17T01:55:34.796Z,0.00
2022-08-17T01:56:34.797Z,0.00
2022-08-17T01:57:34.799Z,0.00
2022-08-17T01:58:34.806Z,0.00
2022-08-17T01:59:34.804Z,0.00
2022-08-17T02:00:59.598Z,0.00
2022-08-17T02:01:34.943Z,0.00
2022-08-17T02:02:34.810Z,0.00
2022-08-17T02:03:34.811Z,0.00
2022-08-17T02:04:34.816Z,0.00
2022-08-17T02:05:34.818Z,0.00
2022-08-17T02:06:52.735Z,0.00
2022-08-17T02:07:59.999Z,0.00
2022-08-17T02:08:37.036Z,0.00
2022-08-17T02:09:34.819Z,0.00
2022-08-17T02:10:34.825Z,0.00
2022-08-17T02:11:34.823Z,0.00
2022-08-17T02:12:37.625Z,0.00
2022-08-17T02:13:34.829Z,0.00
2022-08-17T02:14:34.836Z,0.00
2022-08-17T02:15:34.835Z,0.00
2022-08-17T02:16:36.947Z,0.00
2022-08-17T02:17:34.837Z,0.00
2022-08-17T02:18:34.841Z,0.00
2022-08-17T02:19:34.841Z,0.00
2022-08-17T02:20:41.985Z,0.00
2022-08-17T02:21:34.840Z,0.00
2022-08-17T02:22:34.851Z,0.00
2022-08-17T02:23:34.849Z,8.00
2022-08-17T02:24:59.535Z,8.00
2022-08-17T02:25:34.849Z,8.00
2022-08-17T02:26:34.852Z,8.00
2022-08-17T02:27:34.853Z,8.00
2022-08-17T02:28:34.858Z,8.00
2022-08-17T02:29:34.862Z,8.00
2022-08-17T02:30:59.829Z,8.00
2022-08-17T02:31:34.859Z,8.00
2022-08-17T02:32:34.864Z,8.00
2022-08-17T02:33:42.450Z,8.00
2022-08-17T02:34:34.869Z,8.00
2022-08-17T02:35:34.871Z,8.00
2022-08-17T02:36:34.870Z,4.00
2022-08-17T02:37:34.870Z,8.00
2022-08-17T02:38:34.876Z,8.00
2022-08-17T02:39:34.927Z,8.00
2022-08-17T02:40:36.381Z,8.00
2022-08-17T02:41:34.879Z,8.00
2022-08-17T02:42:34.879Z,8.00
2022-08-17T02:43:34.892Z,8.00
2022-08-17T02:44:39.268Z,8.00
2022-08-17T02:45:34.885Z,4.00
2022-08-17T02:46:34.885Z,8.00
2022-08-17T02:47:34.890Z,8.00
2022-08-17T02:48:34.892Z,8.00
2022-08-17T02:49:34.894Z,8.00
2022-08-17T02:50:34.900Z,8.00
2022-08-17T02:51:34.896Z,8.00
2022-08-17T02:52:42.926Z,8.00
2022-08-17T02:53:35.810Z,8.00
2022-08-17T02:54:41.067Z,8.00
2022-08-17T02:55:34.900Z,8.00
2022-08-17T02:56:34.908Z,8.00
2022-08-17T02:57:34.906Z,8.00
2022-08-17T02:58:36.092Z,4.00
2022-08-17T02:59:34.913Z,4.00
2022-08-17T03:00:34.910Z,4.00
2022-08-17T03:01:34.989Z,4.00
2022-08-17T03:02:34.913Z,4.00
2022-08-17T03:03:34.919Z,4.00
2022-08-17T03:04:35.385Z,4.00
2022-08-17T03:05:34.922Z,4.00
2022-08-17T03:06:34.920Z,4.00
2022-08-17T03:07:34.920Z,4.00
2022-08-17T03:08:34.928Z,4.00
2022-08-17T03:09:34.930Z,4.00
2022-08-17T03:10:34.926Z,4.00
2022-08-17T03:11:34.933Z,4.00
2022-08-17T03:12:34.969Z,4.00
2022-08-17T03:13:34.931Z,4.00
2022-08-17T03:14:38.167Z,4.00
2022-08-17T03:15:34.937Z,4.00
2022-08-17T03:16:34.937Z,4.00
2022-08-17T03:17:34.942Z,8.00
2022-08-17T03:18:34.939Z,8.00
2022-08-17T03:19:34.943Z,8.00
2022-08-17T03:20:34.949Z,8.00
2022-08-17T03:21:34.947Z,8.00
2022-08-17T03:22:36.771Z,8.00
2022-08-17T03:23:34.961Z,8.00
2022-08-17T03:24:34.954Z,12.00
2022-08-17T03:25:34.953Z,8.00
2022-08-17T03:26:34.957Z,8.00
2022-08-17T03:27:34.951Z,12.00
2022-08-17T03:28:34.956Z,12.00
2022-08-17T03:29:34.963Z,12.00
2022-08-17T03:30:34.959Z,16.00
2022-08-17T03:31:36.886Z,16.00
2022-08-17T03:32:34.962Z,16.00
2022-08-17T03:33:34.980Z,16.00
2022-08-17T03:34:34.966Z,16.00
2022-08-17T03:35:34.975Z,20.00
2022-08-17T03:36:35.886Z,24.00
2022-08-17T03:37:35.076Z,28.00
2022-08-17T03:38:38.892Z,32.00
2022-08-17T03:39:35.009Z,36.00
2022-08-17T03:40:58.108Z,40.00
2022-08-17T03:41:34.981Z,48.00
2022-08-17T03:42:34.979Z,48.00
2022-08-17T03:43:34.984Z,56.00
2022-08-17T03:44:34.981Z,60.00
2022-08-17T03:45:34.987Z,68.00
2022-08-17T03:46:35.678Z,76.00
2022-08-17T03:47:34.990Z,84.00
2022-08-17T03:48:34.992Z,88.00
2022-08-17T03:49:34.995Z,100.00
2022-08-17T03:50:34.995Z,108.00
2022-08-17T03:51:34.992Z,116.00
2022-08-17T03:52:34.993Z,128.00
2022-08-17T03:53:34.995Z,136.00
2022-08-17T03:54:35.004Z,144.00
2022-08-17T03:55:36.240Z,156.00
2022-08-17T03:56:35.008Z,168.00
2022-08-17T03:57:35.001Z,180.00
2022-08-17T03:58:35.006Z,192.00
2022-08-17T03:59:35.002Z,204.00
2022-08-17T04:00:35.028Z,212.00
2022-08-17T04:01:35.217Z,228.00
2022-08-17T04:02:35.010Z,240.00
2022-08-17T04:03:35.014Z,252.00
2022-08-17T04:04:35.013Z,268.00
2022-08-17T04:05:35.015Z,280.00
2022-08-17T04:06:35.015Z,296.00
2022-08-17T04:07:35.021Z,308.00
2022-08-17T04:08:35.020Z,324.00
2022-08-17T04:09:35.029Z,336.00
2022-08-17T04:10:38.369Z,356.00
2022-08-17T04:11:35.027Z,368.00
2022-08-17T04:12:35.024Z,384.00
2022-08-17T04:13:35.027Z,400.00
2022-08-17T04:14:35.031Z,416.00
2022-08-17T04:15:35.037Z,436.00
2022-08-17T04:16:35.035Z,452.00
2022-08-17T04:17:35.036Z,464.00
2022-08-17T04:18:35.032Z,484.00
2022-08-17T04:19:35.036Z,500.00
2022-08-17T04:20:35.043Z,520.00
2022-08-17T04:21:35.039Z,540.00
2022-08-17T04:22:35.040Z,556.00
2022-08-17T04:23:35.042Z,576.00
2022-08-17T04:24:35.045Z,596.00
2022-08-17T04:25:35.050Z,620.00
2022-08-17T04:26:54.250Z,644.00
2022-08-17T04:27:35.137Z,668.00
2022-08-17T04:28:35.047Z,688.00
2022-08-17T04:29:54.851Z,712.00
2022-08-17T04:30:35.053Z,732.00
2022-08-17T04:31:35.057Z,756.00
2022-08-17T04:33:04.769Z,776.00
2022-08-17T04:33:35.059Z,796.00
2022-08-17T04:34:35.061Z,812.00
2022-08-17T04:35:35.060Z,836.00
2022-08-17T04:36:35.058Z,856.00
2022-08-17T04:37:35.069Z,876.00
2022-08-17T04:38:35.063Z,892.00
2022-08-17T04:39:35.152Z,916.00
2022-08-17T04:40:35.073Z,936.00
2022-08-17T04:41:35.069Z,960.00
2022-08-17T04:42:35.073Z,988.00
2022-08-17T04:43:35.070Z,1012.00
2022-08-17T04:44:37.375Z,1044.00
2022-08-17T04:45:35.078Z,1076.00
2022-08-17T04:46:35.078Z,1116.00
2022-08-17T04:47:35.082Z,1152.00
2022-08-17T04:48:37.073Z,1196.00
2022-08-17T04:49:35.083Z,1240.00
2022-08-17T04:50:35.082Z,1292.00
2022-08-17T04:51:35.082Z,1344.00
2022-08-17T04:52:43.223Z,1396.00
2022-08-17T04:53:35.091Z,1436.00
2022-08-17T04:54:35.086Z,1476.00
2022-08-17T04:55:35.091Z,1508.00
2022-08-17T04:56:35.101Z,1540.00
2022-08-17T04:57:39.515Z,1568.00
2022-08-17T04:58:35.101Z,1580.00
2022-08-17T04:59:35.100Z,1600.00
2022-08-17T05:00:35.105Z,1632.00
2022-08-17T05:01:35.133Z,1660.00
2022-08-17T05:02:35.105Z,1684.00
2022-08-17T05:03:35.105Z,1716.00
2022-08-17T05:04:35.568Z,1744.00
2022-08-17T05:05:35.111Z,1772.00
2022-08-17T05:06:35.110Z,1796.00
2022-08-17T05:07:35.117Z,1808.00
2022-08-17T05:08:35.155Z,1796.00
2022-08-17T05:09:35.111Z,1784.00
2022-08-17T05:10:35.113Z,1764.00
2022-08-17T05:11:35.117Z,1748.00
2022-08-17T05:12:35.118Z,1728.00
2022-08-17T05:13:35.121Z,1712.00
2022-08-17T05:14:35.124Z,1704.00
2022-08-17T05:15:36.027Z,1696.00
2022-08-17T05:16:35.126Z,1688.00
2022-08-17T05:17:35.128Z,1684.00
2022-08-17T05:18:35.126Z,1688.00
2022-08-17T05:19:35.135Z,1692.00
2022-08-17T05:20:35.130Z,1700.00
2022-08-17T05:21:35.133Z,1712.00
2022-08-17T05:22:35.133Z,1720.00
2022-08-17T05:23:42.833Z,1736.00
2022-08-17T05:24:38.419Z,1744.00
2022-08-17T05:25:36.207Z,1756.00
2022-08-17T05:26:36.482Z,1768.00
2022-08-17T05:27:35.991Z,1780.00
2022-08-17T05:28:35.143Z,1804.00
2022-08-17T05:29:35.986Z,1852.00
2022-08-17T05:30:35.151Z,1880.00
2022-08-17T05:31:35.152Z,1932.00
2022-08-17T05:32:37.975Z,2004.00
2022-08-17T05:33:35.157Z,2080.00
2022-08-17T05:34:35.152Z,2140.00
2022-08-17T05:35:35.160Z,2184.00
2022-08-17T05:36:42.199Z,2232.00
2022-08-17T05:37:35.161Z,2276.00
2022-08-17T05:38:35.162Z,2316.00
2022-08-17T05:39:35.194Z,2340.00
2022-08-17T05:40:35.163Z,2352.00
2022-08-17T05:41:35.165Z,2344.00
2022-08-17T05:42:35.169Z,2356.00
2022-08-17T05:43:35.171Z,2360.00
2022-08-17T05:44:35.176Z,2384.00
2022-08-17T05:45:54.344Z,2404.00
2022-08-17T05:46:35.176Z,2444.00
2022-08-17T05:47:35.180Z,2468.00
2022-08-17T05:48:35.458Z,2508.00
2022-08-17T05:49:35.181Z,2536.00
2022-08-17T05:50:35.184Z,2560.00
2022-08-17T05:51:35.188Z,2600.00
2022-08-17T05:52:35.195Z,2648.00
2022-08-17T05:53:35.259Z,2696.00
2022-08-17T05:54:35.195Z,2804.00
2022-08-17T05:55:35.195Z,2908.00
2022-08-17T05:56:35.195Z,2980.00
2022-08-17T05:57:35.198Z,3016.00
2022-08-17T05:58:35.200Z,3024.00
2022-08-17T05:59:35.198Z,3012.00
2022-08-17T06:00:35.204Z,2988.00
2022-08-17T06:01:35.285Z,2988.00
2022-08-17T06:02:35.209Z,2976.00
2022-08-17T06:03:35.206Z,2976.00
2022-08-17T06:04:35.213Z,2972.00
2022-08-17T06:05:35.213Z,2952.00
2022-08-17T06:06:35.212Z,2932.00
2022-08-17T06:07:35.217Z,2912.00
2022-08-17T06:08:35.219Z,2904.00
2022-08-17T06:09:35.219Z,2912.00
2022-08-17T06:10:35.229Z,2912.00
2022-08-17T06:11:35.261Z,2920.00
2022-08-17T06:12:35.225Z,2936.00
2022-08-17T06:13:35.230Z,2956.00
2022-08-17T06:14:35.233Z,2952.00
2022-08-17T06:15:35.234Z,2948.00
2022-08-17T06:16:35.234Z,2960.00
2022-08-17T06:17:35.243Z,2988.00
2022-08-17T06:18:35.238Z,3032.00
2022-08-17T06:19:35.245Z,3076.00
2022-08-17T06:20:35.245Z,3120.00
2022-08-17T06:21:35.245Z,3172.00
2022-08-17T06:22:35.250Z,3232.00
2022-08-17T06:23:35.255Z,3296.00
2022-08-17T06:24:35.260Z,3356.00
2022-08-17T06:25:35.258Z,3436.00
2022-08-17T06:26:39.717Z,3496.00
2022-08-17T06:27:35.262Z,3556.00
2022-08-17T06:28:35.266Z,3592.00
2022-08-17T06:29:35.268Z,3628.00
2022-08-17T06:30:59.958Z,3668.00
2022-08-17T06:31:35.270Z,3668.00
2022-08-17T06:32:35.273Z,3700.00
2022-08-17T06:33:35.284Z,3704.00
2022-08-17T06:34:35.283Z,3740.00
2022-08-17T06:35:35.279Z,3740.00
2022-08-17T06:36:35.282Z,3732.00
2022-08-17T06:37:35.290Z,3768.00
2022-08-17T06:38:38.374Z,3816.00
2022-08-17T06:39:35.304Z,3856.00
2022-08-17T06:40:35.292Z,3928.00
2022-08-17T06:41:37.912Z,3948.00
2022-08-17T06:43:02.776Z,3928.00
2022-08-17T06:43:35.303Z,3872.00
2022-08-17T06:44:44.780Z,3808.00
2022-08-17T06:45:35.305Z,3688.00
2022-08-17T06:46:35.312Z,3824.00
2022-08-17T06:47:35.311Z,4052.00
2022-08-17T06:48:35.311Z,4092.00
2022-08-17T06:49:35.322Z,4292.00
2022-08-17T06:50:35.321Z,4484.00
2022-08-17T06:51:35.324Z,4668.00
2022-08-17T06:52:47.216Z,4716.00
2022-08-17T06:53:35.335Z,4724.00
2022-08-17T06:54:35.331Z,4664.00
2022-08-17T06:55:38.070Z,4632.00
2022-08-17T06:56:54.596Z,4652.00
2022-08-17T06:57:35.338Z,4688.00
2022-08-17T06:58:35.344Z,4748.00
2022-08-17T06:59:54.676Z,4796.00
2022-08-17T07:00:35.434Z,4812.00
2022-08-17T07:01:35.422Z,4816.00
2022-08-17T07:02:52.110Z,4744.00
2022-08-17T07:03:35.362Z,4656.00
2022-08-17T07:04:35.365Z,4452.00
2022-08-17T07:05:35.384Z,4332.00
2022-08-17T07:06:38.184Z,4332.00
2022-08-17T07:07:35.377Z,4352.00
2022-08-17T07:08:35.603Z,4448.00
2022-08-17T07:09:35.390Z,4612.00
2022-08-17T07:10:35.395Z,4728.00
2022-08-17T07:11:35.389Z,4944.00
2022-08-17T07:12:35.393Z,5080.00
2022-08-17T07:13:35.394Z,5368.00
2022-08-17T07:14:35.401Z,5528.00
2022-08-17T07:15:35.405Z,5688.00
2022-08-17T07:16:35.409Z,5920.00
2022-08-17T07:17:47.015Z,6284.00
2022-08-17T07:18:35.412Z,6932.00
2022-08-17T07:19:35.418Z,8012.00
2022-08-17T07:20:35.422Z,9300.00
2022-08-17T07:21:35.430Z,12848.00
2022-08-17T07:22:57.841Z,24256.00
2022-08-17T07:23:35.437Z,36960.00
2022-08-17T07:24:35.442Z,42432.00
2022-08-17T07:25:35.443Z,44416.00
2022-08-17T07:26:35.457Z,42944.00
2022-08-17T07:27:35.458Z,40800.00
2022-08-17T07:28:35.459Z,43872.00
2022-08-17T07:29:35.460Z,44576.00
2022-08-17T07:30:37.165Z,40416.00
2022-08-17T07:31:35.474Z,41824.00
2022-08-17T07:32:35.485Z,43904.00
2022-08-17T07:33:35.482Z,39616.00
2022-08-17T07:34:35.492Z,38080.00
2022-08-17T07:35:40.653Z,34560.00
2022-08-17T07:36:35.504Z,35712.00
2022-08-17T07:37:35.510Z,35584.00
2022-08-17T07:38:35.555Z,36448.00
2022-08-17T07:39:35.547Z,36352.00
2022-08-17T07:40:35.553Z,41440.00
2022-08-17T07:41:57.430Z,40576.00
2022-08-17T07:42:35.543Z,41088.00
2022-08-17T07:43:35.550Z,45184.00
2022-08-17T07:44:35.555Z,43904.00
2022-08-17T07:45:35.567Z,44928.00
2022-08-17T07:46:35.574Z,45056.00
2022-08-17T07:47:35.580Z,37728.00
2022-08-17T07:48:35.585Z,40320.00
2022-08-17T07:49:35.603Z,45408.00
2022-08-17T07:50:35.603Z,41536.00
2022-08-17T07:51:35.612Z,40672.00
2022-08-17T07:52:50.752Z,44640.00
2022-08-17T07:53:35.628Z,41088.00
2022-08-17T07:54:35.639Z,42016.00
2022-08-17T07:55:35.644Z,45376.00
2022-08-17T07:56:35.652Z,44640.00
2022-08-17T07:57:35.677Z,41600.00
2022-08-17T07:58:35.673Z,41280.00
2022-08-17T07:59:35.680Z,44640.00
2022-08-17T08:00:35.699Z,44608.00
2022-08-17T08:01:39.625Z,44416.00
2022-08-17T08:02:35.713Z,46944.00
2022-08-17T08:03:35.727Z,45184.00
2022-08-17T08:05:02.788Z,42592.00
2022-08-17T08:05:49.500Z,47008.00
2022-08-17T08:06:35.759Z,50400.00
2022-08-17T08:07:35.762Z,46560.00
2022-08-17T08:08:35.776Z,48800.00
2022-08-17T08:09:35.790Z,56384.00
2022-08-17T08:10:35.805Z,53984.00
2022-08-17T08:11:35.816Z,51680.00
2022-08-17T08:12:35.828Z,51616.00
2022-08-17T08:13:35.834Z,47936.00
2022-08-17T08:14:35.847Z,43168.00
2022-08-17T08:15:35.858Z,48320.00
2022-08-17T08:16:35.869Z,50720.00
2022-08-17T08:17:35.884Z,52256.00
2022-08-17T08:18:53.754Z,53920.00
2022-08-17T08:19:35.909Z,51552.00
2022-08-17T08:20:53.158Z,48864.00
2022-08-17T08:21:35.934Z,49472.00
2022-08-17T08:22:35.945Z,47200.00
2022-08-17T08:23:35.957Z,50272.00
2022-08-17T08:24:35.975Z,48672.00
2022-08-17T08:25:35.983Z,49632.00
2022-08-17T08:26:36.004Z,50560.00
2022-08-17T08:27:36.019Z,48000.00
2022-08-17T08:28:36.027Z,46336.00
2022-08-17T08:29:36.044Z,51808.00
2022-08-17T08:30:36.050Z,54336.00
2022-08-17T08:31:41.653Z,54016.00
2022-08-17T08:32:36.079Z,49984.00
2022-08-17T08:33:36.095Z,50112.00
2022-08-17T08:34:44.654Z,38272.00
2022-08-17T08:35:36.123Z,40224.00
2022-08-17T08:37:14.453Z,30464.00
2022-08-17T08:37:42.021Z,22400.00
2022-08-17T08:38:36.168Z,17856.00
2022-08-17T08:39:36.225Z,16320.00
2022-08-17T08:40:36.316Z,15600.00
2022-08-17T08:41:36.206Z,15688.00
2022-08-17T08:42:36.231Z,16288.00
2022-08-17T08:43:36.278Z,16704.00
2022-08-17T08:45:00.503Z,16704.00
2022-08-17T08:45:36.264Z,16736.00
2022-08-17T08:46:36.302Z,17056.00
2022-08-17T08:47:36.288Z,19456.00
2022-08-17T08:48:53.955Z,42624.00
2022-08-17T08:50:02.225Z,62912.00
2022-08-17T08:50:38.486Z,64384.00
2022-08-17T08:51:36.355Z,62592.00
2022-08-17T08:52:36.365Z,66784.00
2022-08-17T08:53:36.383Z,73600.00
2022-08-17T08:54:36.395Z,69152.00
2022-08-17T08:55:36.407Z,61824.00
2022-08-17T08:56:36.430Z,64512.00
2022-08-17T08:57:36.440Z,68768.00
2022-08-17T08:58:41.367Z,64576.00
2022-08-17T08:59:36.472Z,66304.00
2022-08-17T09:00:36.509Z,79712.00
2022-08-17T09:01:36.548Z,81120.00
2022-08-17T09:02:36.519Z,74688.00
2022-08-17T09:03:51.864Z,76160.00
2022-08-17T09:05:09.952Z,75616.00
2022-08-17T09:05:36.573Z,71968.00
2022-08-17T09:06:39.261Z,72832.00
2022-08-17T09:07:36.605Z,75936.00
2022-08-17T09:08:36.625Z,74720.00
2022-08-17T09:09:36.640Z,76832.00
2022-08-17T09:10:36.660Z,76736.00
2022-08-17T09:11:36.713Z,73440.00
2022-08-17T09:12:36.689Z,70656.00
2022-08-17T09:13:36.709Z,72256.00
2022-08-17T09:14:45.000Z,76192.00
2022-08-17T09:15:36.747Z,83104.00
2022-08-17T09:16:36.772Z,83872.00
2022-08-17T09:17:36.786Z,75424.00
2022-08-17T09:19:03.411Z,75520.00
2022-08-17T09:19:36.828Z,81344.00
2022-08-17T09:20:36.845Z,78208.00
2022-08-17T09:21:36.864Z,74016.00
2022-08-17T09:22:36.889Z,76000.00
2022-08-17T09:23:36.905Z,82080.00
2022-08-17T09:24:36.928Z,84160.00
2022-08-17T09:25:36.949Z,82656.00
2022-08-17T09:26:36.971Z,81152.00
2022-08-17T09:27:36.991Z,82400.00
2022-08-17T09:28:37.018Z,82688.00
2022-08-17T09:29:37.049Z,75808.00
2022-08-17T09:30:37.058Z,69376.00
2022-08-17T09:31:48.937Z,72832.00
2022-08-17T09:32:37.104Z,79744.00
2022-08-17T09:33:37.128Z,82752.00
2022-08-17T09:34:37.154Z,79680.00
2022-08-17T09:35:37.600Z,75616.00
2022-08-17T09:36:37.196Z,75296.00
2022-08-17T09:37:37.218Z,76320.00
2022-08-17T09:38:37.243Z,77664.00
2022-08-17T09:39:37.321Z,78656.00
2022-08-17T09:40:37.289Z,78528.00
2022-08-17T09:41:37.311Z,72576.00
2022-08-17T09:42:37.333Z,73056.00
2022-08-17T09:43:37.361Z,72384.00
2022-08-17T09:44:37.382Z,78368.00
2022-08-17T09:45:37.420Z,80032.00
2022-08-17T09:46:38.801Z,79776.00
2022-08-17T09:47:37.453Z,81248.00
2022-08-17T09:48:37.476Z,82208.00
2022-08-17T09:49:37.506Z,79264.00
2022-08-17T09:51:05.378Z,78240.00
2022-08-17T09:51:37.557Z,79008.00
2022-08-17T09:52:37.579Z,81952.00
2022-08-17T09:53:37.608Z,77824.00
2022-08-17T09:54:39.719Z,75200.00
2022-08-17T09:55:37.662Z,77856.00
2022-08-17T09:56:41.045Z,84384.00
2022-08-17T09:57:37.705Z,89216.00
2022-08-17T09:58:37.733Z,90272.00
2022-08-17T09:59:38.730Z,83040.00
2022-08-17T10:00:37.785Z,77312.00
2022-08-17T10:01:37.836Z,76224.00
2022-08-17T10:02:37.838Z,72864.00
2022-08-17T10:03:37.859Z,76896.00
2022-08-17T10:04:37.888Z,84384.00
2022-08-17T10:05:37.911Z,86304.00
2022-08-17T10:06:37.938Z,82784.00
2022-08-17T10:07:37.962Z,73568.00
2022-08-17T10:08:37.995Z,69664.00
2022-08-17T10:09:38.019Z,51584.00
2022-08-17T10:10:38.045Z,74688.00
2022-08-17T10:11:38.074Z,16936.00
2022-08-17T10:12:38.222Z,14820.00
2022-08-17T10:13:38.127Z,13964.00
2022-08-17T10:14:43.652Z,12324.00
2022-08-17T10:15:38.174Z,12008.00
2022-08-17T10:16:38.206Z,12064.00
2022-08-17T10:17:38.227Z,11292.00
2022-08-17T10:18:38.258Z,10528.00
2022-08-17T10:19:38.281Z,10524.00
2022-08-17T10:20:38.311Z,11144.00
2022-08-17T10:21:38.328Z,12136.00
2022-08-17T10:22:38.382Z,13064.00
2022-08-17T10:23:38.383Z,14212.00
2022-08-17T10:24:38.404Z,13240.00
2022-08-17T10:25:54.027Z,13004.00
2022-08-17T10:26:46.222Z,12852.00
2022-08-17T10:27:38.477Z,12396.00
2022-08-17T10:28:38.505Z,12504.00
2022-08-17T10:29:49.733Z,12236.00
2022-08-17T10:30:38.551Z,12940.00
2022-08-17T10:31:38.578Z,13360.00
2022-08-17T10:32:38.599Z,13908.00
2022-08-17T10:33:38.616Z,14204.00
2022-08-17T10:34:41.393Z,14700.00
2022-08-17T10:35:38.662Z,15292.00
2022-08-17T10:36:38.790Z,42304.00
2022-08-17T10:37:38.706Z,15408.00
2022-08-17T10:38:38.730Z,14300.00
2022-08-17T10:39:52.408Z,14064.00
2022-08-17T10:40:38.772Z,35264.00
2022-08-17T10:41:40.519Z,20416.00
2022-08-17T10:42:38.810Z,31424.00
2022-08-17T10:43:38.829Z,18880.00
2022-08-17T10:44:41.287Z,18176.00
2022-08-17T10:45:38.872Z,33824.00
2022-08-17T10:46:38.898Z,17440.00
2022-08-17T10:47:54.988Z,17504.00
2022-08-17T10:48:38.938Z,17112.00
2022-08-17T10:49:38.958Z,16288.00
2022-08-17T10:50:38.976Z,14924.00
2022-08-17T10:51:38.994Z,13848.00
2022-08-17T10:52:39.017Z,14244.00
2022-08-17T10:53:39.040Z,27200.00
2022-08-17T10:54:39.064Z,31584.00
2022-08-17T10:55:39.083Z,38752.00
2022-08-17T10:56:39.098Z,22976.00
2022-08-17T10:57:39.121Z,35776.00
2022-08-17T10:58:39.135Z,18176.00
2022-08-17T10:59:39.153Z,12500.00
2022-08-17T11:00:39.236Z,11572.00
2022-08-17T11:01:39.192Z,11972.00
2022-08-17T11:02:39.216Z,12216.00
2022-08-17T11:03:39.233Z,12440.00
2022-08-17T11:04:39.254Z,12688.00
2022-08-17T11:05:43.500Z,12792.00
2022-08-17T11:06:39.293Z,12884.00
2022-08-17T11:07:39.308Z,13592.00
2022-08-17T11:08:39.331Z,13736.00
2022-08-17T11:09:39.351Z,13972.00
2022-08-17T11:10:39.364Z,14584.00
2022-08-17T11:11:39.377Z,15596.00
2022-08-17T11:12:39.401Z,16572.00
2022-08-17T11:13:39.419Z,18240.00
2022-08-17T11:14:39.437Z,18656.00
2022-08-17T11:15:39.448Z,19296.00
2022-08-17T11:16:39.470Z,19296.00
2022-08-17T11:17:39.488Z,19296.00
2022-08-17T11:18:39.506Z,19168.00
2022-08-17T11:19:39.521Z,18112.00
2022-08-17T11:20:39.542Z,21024.00
2022-08-17T11:21:39.560Z,88608.00
2022-08-17T11:22:39.578Z,66368.00
2022-08-17T11:23:39.594Z,90080.00
2022-08-17T11:24:39.608Z,88800.00
2022-08-17T11:25:39.627Z,63968.00
2022-08-17T11:26:39.644Z,78272.00
2022-08-17T11:27:39.673Z,75744.00
2022-08-17T11:28:39.681Z,99744.00
2022-08-17T11:29:39.705Z,98304.00
2022-08-17T11:30:39.721Z,96608.00
2022-08-17T11:31:40.019Z,100064.00
2022-08-17T11:32:47.560Z,98432.00
2022-08-17T11:33:39.778Z,95232.00
2022-08-17T11:34:39.797Z,96224.00
2022-08-17T11:35:39.815Z,92192.00
2022-08-17T11:36:39.836Z,71328.00
2022-08-17T11:37:39.863Z,28832.00
2022-08-17T11:38:39.877Z,72416.00
2022-08-17T11:39:39.955Z,94368.00
2022-08-17T11:40:39.923Z,66080.00
2022-08-17T11:41:39.943Z,33792.00
2022-08-17T11:42:39.962Z,42240.00
2022-08-17T11:43:42.815Z,31808.00
2022-08-17T11:44:40.010Z,37376.00
2022-08-17T11:45:40.028Z,20608.00
2022-08-17T11:46:40.050Z,15944.00
2022-08-17T11:47:40.076Z,23552.00
2022-08-17T11:48:40.100Z,77248.00
2022-08-17T11:49:40.121Z,61984.00
2022-08-17T11:50:40.145Z,28224.00
2022-08-17T11:51:40.166Z,24352.00
2022-08-17T11:52:40.188Z,13940.00
2022-08-17T11:53:40.207Z,13352.00
2022-08-17T11:54:40.231Z,13776.00
2022-08-17T11:55:44.757Z,15916.00
2022-08-17T11:56:40.278Z,17952.00
2022-08-17T11:57:40.299Z,20160.00
2022-08-17T11:58:40.324Z,20544.00
2022-08-17T11:59:40.344Z,20640.00
2022-08-17T12:00:40.366Z,22752.00
2022-08-17T12:01:40.387Z,40512.00
2022-08-17T12:02:44.382Z,24448.00
2022-08-17T12:03:40.430Z,24416.00
2022-08-17T12:04:40.517Z,21472.00
2022-08-17T12:05:40.474Z,19744.00
2022-08-17T12:06:40.490Z,18336.00
2022-08-17T12:07:40.518Z,16504.00
2022-08-17T12:08:40.529Z,15776.00
2022-08-17T12:09:40.556Z,15760.00
2022-08-17T12:10:40.575Z,16236.00
2022-08-17T12:11:56.247Z,16740.00
2022-08-17T12:12:40.616Z,20320.00
2022-08-17T12:13:40.638Z,34912.00
2022-08-17T12:15:08.251Z,52064.00
2022-08-17T12:15:40.674Z,49088.00
2022-08-17T12:16:40.702Z,31136.00
2022-08-17T12:17:42.848Z,40544.00
2022-08-17T12:18:40.738Z,14404.00